»·PEaware :: EAL819 KCOS-KGJT

EAL819 :: KCOS-KGJT

FLIGHT INFORMATION

Flight Status: Arrived
Operator:
Eastern Air Lines
More flights by this operator :: More flights under this callsign
Pilot: Bob C. (7429)
Aircraft: LOCKHEED L-049/749/1049 CONSTELLATION
(CONI)
More flights by this aircraft type
Origin: KCOS City Of Colorado Springs Mun
United States
Destination: KGJT Walker
United States
More flights between these airports :: More routes between these airports
Route: +BRK FQF J80 JNC
File this flight plan on PilotEdge
Remarks: Newbie Typical descent rate for Connie is 600 FPM without overspeeding.
Altitude:
(Current/Filed)
18,000ft
Speed:
(Current/Filed)
260kts
Departed: 14-Nov-17 08:24 AM
Arrived: 14-Nov-17 09:47 AM
Distance/Time
Traveled:
180nm/1:22
Distance/Time
To Go:
Arrived

Flight Plot

Page will automatically refresh every two minutes.

Flight plan parsing failed; only flown route is shown


Map Options




Map Legend


Flown Route
Filed Route
Departure Airport
Arrival Airport
Navaid (VOR, NDB)
Fix

Horizontal Profiles

Position Reports

Time Latitude Longitude Heading Altitude Ground
Speed
14-Nov-17 08:11 38.806641 -104.718580 274 6194ft 0kts
14-Nov-17 08:12 38.806641 -104.718582 274 6194ft 0kts
14-Nov-17 08:13 38.806641 -104.718583 274 6194ft 0kts
14-Nov-17 08:14 38.806641 -104.718585 274 6194ft 0kts
14-Nov-17 08:15 38.806642 -104.718586 274 6194ft 0kts
14-Nov-17 08:16 38.806642 -104.718587 274 6194ft 0kts
14-Nov-17 08:17 38.806642 -104.718588 274 6194ft 0kts
14-Nov-17 08:18 38.806642 -104.718590 274 6194ft 0kts
14-Nov-17 08:19 38.806642 -104.718591 274 6194ft 0kts
14-Nov-17 08:20 38.806642 -104.718592 274 6194ft 0kts
14-Nov-17 08:21 38.805807 -104.718120 103 6194ft 14kts
14-Nov-17 08:22 38.802592 -104.716771 182 6194ft 15kts
14-Nov-17 08:23 38.798678 -104.716802 180 6194ft 16kts
14-Nov-17 08:24 38.794511 -104.716841 182 6194ft 9kts
14-Nov-17 08:25 38.794301 -104.716817 159 6194ft 0kts
14-Nov-17 08:26 38.794299 -104.716817 159 6194ft 0kts
14-Nov-17 08:27 38.794298 -104.716816 159 6194ft 0kts
14-Nov-17 08:28 38.794744 -104.715977 1 6194ft 26kts
14-Nov-17 08:29 38.823492 -104.717453 357 6905ft 131kts
14-Nov-17 08:30 38.861151 -104.718818 358 8392ft 140kts
14-Nov-17 08:31 38.899924 -104.719168 358 9582ft 137kts
14-Nov-17 08:32 38.938339 -104.712723 4 10521ft 141kts
14-Nov-17 08:33 38.977986 -104.703452 5 11605ft 149kts
14-Nov-17 08:34 39.018895 -104.692562 4 12798ft 149kts
14-Nov-17 08:35 39.060242 -104.680059 4 13814ft 155kts
14-Nov-17 08:36 39.102042 -104.673442 353 14797ft 151kts
14-Nov-17 08:37 39.144307 -104.670087 351 15770ft 153kts
14-Nov-17 08:38 39.186642 -104.665990 350 16933ft 153kts
14-Nov-17 08:39 39.230036 -104.660449 351 17925ft 164kts
14-Nov-17 08:40 39.281658 -104.655168 351 18116ft 205kts
14-Nov-17 08:41 39.341735 -104.651453 351 18033ft 227kts
14-Nov-17 08:42 39.405892 -104.646962 352 18076ft 234kts
14-Nov-17 08:43 39.464734 -104.642132 352 18090ft 235kts
14-Nov-17 08:44 39.530640 -104.635061 354 18075ft 240kts
14-Nov-17 08:45 39.597503 -104.626660 355 18047ft 243kts
14-Nov-17 08:46 39.665253 -104.617823 355 18052ft 242kts
14-Nov-17 08:47 39.724059 -104.629258 297 18328ft 188kts
14-Nov-17 08:48 39.724175 -104.696014 261 18011ft 195kts
14-Nov-17 08:49 39.714184 -104.764812 257 18076ft 191kts
14-Nov-17 08:50 39.700294 -104.831951 256 17979ft 195kts
14-Nov-17 08:51 39.684933 -104.898780 255 18012ft 192kts
14-Nov-17 08:52 39.670033 -104.965667 255 17975ft 192kts
14-Nov-17 08:53 39.655497 -105.032252 255 17953ft 192kts
14-Nov-17 08:54 39.641047 -105.098986 256 17959ft 190kts
14-Nov-17 08:55 39.631733 -105.166326 261 17956ft 190kts
14-Nov-17 08:56 39.625751 -105.234455 264 17935ft 190kts
14-Nov-17 08:57 39.621220 -105.302668 264 17988ft 188kts
14-Nov-17 08:58 39.616472 -105.370039 264 18038ft 187kts
14-Nov-17 08:59 39.612126 -105.437284 264 18098ft 187kts
14-Nov-17 09:00 39.608077 -105.504649 264 18141ft 187kts
14-Nov-17 09:01 39.603607 -105.571301 262 18277ft 182kts
14-Nov-17 09:02 39.595581 -105.635512 259 18410ft 180kts
14-Nov-17 09:03 39.587624 -105.699648 260 18506ft 179kts
14-Nov-17 09:04 39.579621 -105.763594 260 18587ft 180kts
14-Nov-17 09:05 39.570668 -105.828848 259 18528ft 185kts
14-Nov-17 09:06 39.563164 -105.895097 261 18474ft 189kts
14-Nov-17 09:07 39.555300 -105.962729 259 18430ft 190kts
14-Nov-17 09:08 39.545919 -106.030485 259 18425ft 190kts
14-Nov-17 09:09 39.537237 -106.097931 259 18437ft 189kts
14-Nov-17 09:10 39.528088 -106.165218 258 18422ft 189kts
14-Nov-17 09:11 39.518810 -106.232698 259 18419ft 190kts
14-Nov-17 09:12 39.509478 -106.299911 259 18408ft 189kts
14-Nov-17 09:13 39.500089 -106.367255 258 18384ft 190kts
14-Nov-17 09:14 39.491053 -106.435046 259 18379ft 191kts
14-Nov-17 09:15 39.482650 -106.496895 259 18374ft 191kts
14-Nov-17 09:16 39.474771 -106.565027 260 18344ft 192kts
14-Nov-17 09:17 39.467652 -106.633992 261 18306ft 193kts
14-Nov-17 09:18 39.460513 -106.702850 261 18279ft 193kts
14-Nov-17 09:19 39.453307 -106.772008 261 18259ft 193kts
14-Nov-17 09:20 39.446400 -106.841018 261 18232ft 194kts
14-Nov-17 09:21 39.438663 -106.909881 255 18264ft 191kts
14-Nov-17 09:22 39.424153 -106.976537 254 18231ft 193kts
14-Nov-17 09:23 39.409505 -107.043435 254 18214ft 193kts
14-Nov-17 09:24 39.396377 -107.109511 256 18328ft 188kts
14-Nov-17 09:25 39.383994 -107.175417 255 18353ft 188kts
14-Nov-17 09:26 39.371481 -107.240910 255 18368ft 187kts
14-Nov-17 09:27 39.358912 -107.306171 256 18387ft 187kts
14-Nov-17 09:28 39.346471 -107.371757 255 18393ft 187kts
14-Nov-17 09:29 39.334508 -107.437349 255 18399ft 188kts
14-Nov-17 09:30 39.322462 -107.503142 255 18413ft 188kts
14-Nov-17 09:31 39.310268 -107.568997 256 18385ft 190kts
14-Nov-17 09:32 39.298031 -107.636029 255 17979ft 196kts
14-Nov-17 09:33 39.285063 -107.705840 256 17220ft 202kts
14-Nov-17 09:34 39.271593 -107.776240 254 16475ft 201kts
14-Nov-17 09:35 39.256925 -107.846156 254 15629ft 202kts
14-Nov-17 09:36 39.242420 -107.916465 254 14982ft 197kts
14-Nov-17 09:37 39.228600 -107.982469 254 14763ft 186kts
14-Nov-17 09:38 39.215426 -108.043476 253 14838ft 170kts
14-Nov-17 09:39 39.202875 -108.101330 246 14862ft 162kts
14-Nov-17 09:40 39.164751 -108.135581 215 14425ft 177kts
14-Nov-17 09:41 39.121747 -108.166615 215 13853ft 149kts
14-Nov-17 09:42 39.088324 -108.190169 216 12771ft 133kts
14-Nov-17 09:43 39.059409 -108.216030 245 12075ft 115kts
14-Nov-17 09:44 39.050177 -108.256835 258 10809ft 124kts
14-Nov-17 09:45 39.050764 -108.298926 281 9599ft 121kts
14-Nov-17 09:46 39.050235 -108.341174 260 8290ft 117kts
14-Nov-17 09:47 39.053320 -108.381609 277 7268ft 112kts
14-Nov-17 09:48 39.066961 -108.418023 291 6611ft 110kts
14-Nov-17 09:49 39.082918 -108.450993 310 5873ft 116kts
14-Nov-17 09:50 39.101272 -108.483273 304 5546ft 109kts
14-Nov-17 09:51 39.117389 -108.512384 305 4915ft 94kts
14-Nov-17 09:52 39.125581 -108.527306 305 4868ft 27kts
14-Nov-17 09:53 39.126005 -108.530281 217 4868ft 0kts
14-Nov-17 09:54 39.125015 -108.530726 144 4868ft 22kts
14-Nov-17 09:55 39.123421 -108.529007 170 4868ft 0kts
14-Nov-17 09:56 39.123421 -108.529007 170 4868ft 0kts
14-Nov-17 09:57 39.123421 -108.529007 170 4868ft 0kts
14-Nov-17 09:58 39.123421 -108.529007 170 4868ft 0kts

Navigation Log

Ident Type
Flight plan parsing failed, navigation log unavailable